White Settlement, Texas
Current Conditions -  °F | °C
As of 9:52 PM on Tuesday 27 Jan 2015 (Local Time) from KNFW Reporting Station
Few Clouds Few Clouds  
Wind Chill: 59°   Ceiling: Unl
Heat Index: 59°   Visibility: 10mi
Dew Point: 38°   Wind: 6mph
Humidity: 46%   Direction: 190°S
Pressure: 30.16"   Gusts: NA
Location:  32.7792°N, 97.5244°W
Report Text: KNFW 280352Z 19005KT 10SM FEW250 15/03 A3016 RMK AO2 SLP194 T01500033 $
Loading
Personal Weather Stations






























Interactive Weather Map New forecast layout! Learn more

10-Day Weather Forecast

Advertisements
Track Severe Weather on mobile